Time;durP1;ratioP1;P1;durP2;ratioP2;P2;SDS_P1;SDS_P2;PMS_P1;PMS_P2;Temp;Humidity;BMP_temperature;BMP_pressure;BME280_temperature;BME280_humidity;BME280_pressure;Samples;Min_cycle;Max_cycle;Signal;HPM_P1;HPM_P2
2023/10/15 00:00:18;;;;;;;0.50;0.50;;;;;;;11.76;81.48;96746.16;5004651;28;20069;-59
2023/10/15 00:02:48;;;;;;;0.50;0.50;;;;;;;11.73;82.74;96752.44;5006258;28;20364;-58
2023/10/15 00:05:17;;;;;;;0.50;0.50;;;;;;;11.69;81.51;96729.44;5005829;28;20065;-58
2023/10/15 00:07:47;;;;;;;0.50;0.50;;;;;;;11.73;81.65;96746.91;5006453;28;20049;-58
2023/10/15 00:10:17;;;;;;;0.50;0.50;;;;;;;11.76;81.14;96746.16;5005833;28;20049;-58
2023/10/15 00:12:45;;;;;;;0.55;0.55;;;;;;;11.62;81.42;96743.22;5004962;28;20073;-59
2023/10/15 00:15:20;;;;;;;0.50;0.50;;;;;;;11.50;81.74;96733.25;5006364;28;20125;-58
2023/10/15 00:17:52;;;;;;;0.50;0.50;;;;;;;11.46;82.10;96737.16;5006571;28;20056;-58
2023/10/15 00:20:20;;;;;;;0.50;0.50;;;;;;;11.48;81.85;96729.22;5005548;28;20049;-60
2023/10/15 00:22:49;;;;;;;0.50;0.50;;;;;;;10.96;81.90;96657.47;5005684;28;20045;-58
2023/10/15 00:25:20;;;;;;;0.50;0.50;;;;;;;10.99;82.64;96634.56;5014438;28;20130;-58
2023/10/15 00:27:56;;;;;;;0.50;0.50;;;;;;;11.70;83.36;96717.97;5005532;28;20419;-58
2023/10/15 00:30:32;;;;;;;0.50;0.50;;;;;;;11.82;83.31;96719.63;5004112;28;20054;-60
2023/10/15 00:33:03;;;;;;;0.50;0.50;;;;;;;11.84;82.88;96714.47;5004400;28;20057;-58
2023/10/15 00:35:33;;;;;;;0.60;0.60;;;;;;;11.88;83.09;96715.31;5007002;28;20558;-57
2023/10/15 00:38:10;;;;;;;0.60;0.60;;;;;;;11.59;82.96;96658.81;5023778;28;20535;-59
2023/10/15 00:40:37;;;;;;;0.50;0.50;;;;;;;11.96;82.85;96703.88;5024782;28;20049;-58
2023/10/15 00:43:08;;;;;;;0.50;0.50;;;;;;;12.04;83.35;96715.81;5025098;28;20053;-58
2023/10/15 00:45:39;;;;;;;0.50;0.50;;;;;;;11.72;84.57;96670.41;5022324;28;20069;-57
2023/10/15 00:48:08;;;;;;;0.50;0.50;;;;;;;12.08;83.91;96697.19;5014968;28;20049;-58
2023/10/15 00:50:40;;;;;;;0.50;0.50;;;;;;;12.10;83.38;96697.59;5024785;28;20059;-58
2023/10/15 00:53:22;;;;;;;0.60;0.60;;;;;;;12.02;84.25;96693.19;5024938;28;20487;-58
2023/10/15 00:55:54;;;;;;;0.55;0.55;;;;;;;11.65;84.35;96628.75;5022627;28;20045;-58
2023/10/15 00:58:33;;;;;;;0.52;0.52;;;;;;;11.96;83.99;96655.88;5024977;28;20057;-58
2023/10/15 01:03:54;;;;;;;0.50;0.50;;;;;;;12.11;84.43;96683.31;5020743;28;20089;-57
2023/10/15 01:09:08;;;;;;;0.50;0.50;;;;;;;11.57;83.05;96599.34;5004943;28;20515;-59
2023/10/15 01:11:37;;;;;;;0.50;0.50;;;;;;;12.07;83.29;96676.16;5005209;28;20060;-58
2023/10/15 01:14:04;;;;;;;0.60;0.60;;;;;;;12.05;83.62;96664.66;5007437;28;20498;-58
2023/10/15 01:16:31;;;;;;;0.50;0.50;;;;;;;11.83;84.44;96662.94;5024104;28;20060;-58
2023/10/15 01:19:14;;;;;;;0.60;0.60;;;;;;;12.05;83.55;96671.00;5023022;28;20073;-60
2023/10/15 01:21:58;;;;;;;0.60;0.60;;;;;;;11.95;82.69;96659.81;5024659;28;20057;-57
2023/10/15 01:24:26;;;;;;;0.60;0.60;;;;;;;11.89;82.88;96739.09;5010242;28;20248;-57
2023/10/15 01:27:22;;;;;;;0.60;0.60;;;;;;;11.89;83.02;96672.50;5022692;28;20435;-60
2023/10/15 01:29:46;;;;;;;0.60;0.60;;;;;;;11.88;83.24;96648.69;5024354;28;20077;-57
2023/10/15 01:32:15;;;;;;;0.60;0.60;;;;;;;11.65;85.13;96623.22;5022879;28;20549;-58
2023/10/15 01:34:45;;;;;;;0.50;0.50;;;;;;;12.03;85.75;96659.50;5008398;28;20057;-58
2023/10/15 01:37:21;;;;;;;0.55;0.55;;;;;;;12.08;85.86;96661.91;5003241;28;20060;-57
2023/10/15 01:39:53;;;;;;;0.50;0.50;;;;;;;11.97;86.38;96657.47;5003196;28;20088;-57
2023/10/15 01:45:31;;;;;;;0.55;0.55;;;;;;;11.92;85.90;96671.72;5024156;28;20053;-58
2023/10/15 01:50:23;;;;;;;0.50;0.50;;;;;;;11.96;83.13;96661.44;5024346;28;20049;-58
2023/10/15 01:53:01;;;;;;;0.50;0.50;;;;;;;11.17;83.44;96568.97;5022819;28;20045;-58
2023/10/15 01:55:29;;;;;;;0.50;0.50;;;;;;;11.73;82.71;96672.78;5004203;28;20108;-59
2023/10/15 01:58:00;;;;;;;0.50;0.50;;;;;;;11.67;82.35;96665.22;5004331;28;20082;-57
2023/10/15 02:00:43;;;;;;;0.50;0.50;;;;;;;11.40;83.06;96667.38;5004096;28;20053;-59
2023/10/15 02:03:11;;;;;;;0.50;0.50;;;;;;;11.47;82.42;96674.97;5009561;28;20107;-60
2023/10/15 02:05:41;;;;;;;0.50;0.50;;;;;;;11.00;82.04;96598.13;5021935;28;20060;-57
2023/10/15 02:08:12;;;;;;;0.50;0.50;;;;;;;11.45;83.11;96671.75;5023863;28;20484;-58
2023/10/15 02:10:40;;;;;;;0.50;0.50;;;;;;;11.51;84.50;96678.53;5023049;28;20188;-58
2023/10/15 02:13:08;;;;;;;0.50;0.50;;;;;;;11.48;85.55;96673.75;5007617;28;20576;-61
2023/10/15 02:15:39;;;;;;;0.50;0.50;;;;;;;11.57;85.66;96677.81;5003050;28;20052;-58
2023/10/15 02:18:30;;;;;;;0.50;0.50;;;;;;;11.49;85.79;96672.59;5003049;28;20164;-58
2023/10/15 02:23:23;;;;;;;0.57;0.57;;;;;;;11.49;86.93;96664.28;5018619;28;20056;-58
2023/10/15 02:26:08;;;;;;;0.50;0.50;;;;;;;11.18;86.41;96626.00;5007998;28;20058;-58
2023/10/15 02:28:36;;;;;;;0.55;0.55;;;;;;;11.48;86.01;96662.66;5004138;28;20852;-57
2023/10/15 02:33:30;;;;;;;0.50;0.50;;;;;;;11.32;84.98;96654.63;5023705;28;20161;-58
2023/10/15 02:35:59;;;;;;;0.50;0.50;;;;;;;11.25;85.42;96653.78;5023756;28;20128;-60
2023/10/15 02:38:33;;;;;;;0.50;0.50;;;;;;;11.31;85.81;96652.25;5022371;28;20053;-57
2023/10/15 02:41:04;;;;;;;0.50;0.50;;;;;;;11.29;87.29;96626.88;5021859;28;20072;-60
2023/10/15 02:43:32;;;;;;;0.50;0.50;;;;;;;11.56;87.78;96636.56;5002371;28;20066;-57
2023/10/15 02:48:47;;;;;;;0.50;0.50;;;;;;;11.64;88.04;96616.84;5003524;28;20046;-58
2023/10/15 02:51:20;;;;;;;0.50;0.50;;;;;;;11.78;88.11;96638.34;4999462;28;20050;-57
2023/10/15 02:53:54;;;;;;;0.50;0.50;;;;;;;11.18;88.13;96565.00;5003774;28;20057;-58
2023/10/15 02:56:22;;;;;;;0.60;0.60;;;;;;;11.63;84.46;96642.22;5005734;28;20045;-58
2023/10/15 02:58:50;;;;;;;0.50;0.50;;;;;;;11.46;84.67;96638.09;5025195;28;20140;-58
2023/10/15 03:01:20;;;;;;;0.50;0.50;;;;;;;11.31;84.25;96635.63;5014916;28;20161;-58
2023/10/15 03:03:52;;;;;;;0.50;0.50;;;;;;;11.30;84.21;96634.03;5005925;28;20066;-58
2023/10/15 03:06:25;;;;;;;0.50;0.50;;;;;;;11.23;84.26;96633.97;5034420;28;20061;-57
2023/10/15 03:08:52;;;;;;;0.50;0.50;;;;;;;11.23;84.62;96636.75;5026522;28;20049;-58
2023/10/15 03:11:20;;;;;;;0.50;0.50;;;;;;;11.39;83.60;96634.47;5027166;28;20141;-60
2023/10/15 03:14:00;;;;;;;0.50;0.50;;;;;;;11.42;85.24;96630.94;5026293;28;20050;-58
2023/10/15 03:16:30;;;;;;;0.60;0.60;;;;;;;11.44;85.14;96634.13;5015999;28;20060;-58
2023/10/15 03:19:06;;;;;;;0.50;0.50;;;;;;;11.37;85.72;96628.53;5005918;28;20054;-60
2023/10/15 03:21:38;;;;;;;0.50;0.50;;;;;;;11.42;87.94;96625.41;5006661;28;20068;-58
2023/10/15 03:24:06;;;;;;;0.50;0.50;;;;;;;11.41;88.95;96618.25;5007947;28;20148;-57
2023/10/15 03:26:34;;;;;;;0.50;0.50;;;;;;;11.46;88.49;96604.03;5009472;28;20516;-58
2023/10/15 03:29:08;;;;;;;0.50;0.50;;;;;;;11.49;87.89;96609.59;5006274;28;20127;-58
2023/10/15 03:31:37;;;;;;;0.60;0.60;;;;;;;11.52;87.79;96602.50;5007280;28;20053;-59
2023/10/15 03:44:47;;;;;;;0.90;0.90;;;;;;;11.22;87.02;96607.44;5019317;28;20061;-60
2023/10/15 03:47:22;;;;;;;0.90;0.90;;;;;;;11.05;86.29;96602.56;5026454;28;20056;-57
2023/10/15 03:49:51;;;;;;;0.80;0.80;;;;;;;10.26;86.13;96486.72;5023964;28;20125;-59
2023/10/15 03:52:21;;;;;;;0.90;0.90;;;;;;;10.86;85.48;96572.31;5026108;28;20146;-59
2023/10/15 03:54:52;;;;;;;0.80;0.80;;;;;;;10.57;84.59;96530.50;5011139;28;20503;-57
2023/10/15 03:57:27;;;;;;;0.80;0.80;;;;;;;10.93;83.88;96594.53;5005582;28;20748;-57
2023/10/15 03:59:55;;;;;;;0.90;0.90;;;;;;;10.99;83.71;96604.88;5006312;28;20132;-58
2023/10/15 04:02:24;;;;;;;0.80;0.80;;;;;;;10.94;84.19;96596.13;5006214;28;20444;-58
2023/10/15 04:05:08;;;;;;;0.80;0.80;;;;;;;10.43;84.84;96524.84;5006108;28;20289;-59
2023/10/15 04:07:39;;;;;;;0.80;0.80;;;;;;;10.94;84.67;96588.59;5004690;28;20533;-59
2023/10/15 04:10:08;;;;;;;0.90;0.90;;;;;;;10.84;85.32;96582.97;5016221;28;20111;-60
2023/10/15 04:12:35;;;;;;;0.80;0.80;;;;;;;10.82;85.82;96572.28;5025965;28;20059;-59
2023/10/15 04:15:12;;;;;;;0.80;0.80;;;;;;;10.94;86.49;96571.97;5025958;28;20056;-58
2023/10/15 04:17:39;;;;;;;0.90;0.90;;;;;;;10.84;87.34;96555.28;5022329;28;20133;-59
2023/10/15 04:20:06;;;;;;;0.80;0.80;;;;;;;11.07;87.50;96569.69;5004386;28;20726;-58
2023/10/15 04:22:39;;;;;;;0.90;0.90;;;;;;;11.12;88.35;96569.34;5004328;28;20054;-60
2023/10/15 04:25:06;;;;;;;0.88;0.88;;;;;;;10.75;88.37;96491.09;5008269;28;20049;-58
2023/10/15 04:27:34;;;;;;;0.90;0.90;;;;;;;11.17;89.05;96557.88;5025210;28;20075;-59
2023/10/15 04:30:01;;;;;;;0.90;0.90;;;;;;;11.31;89.07;96563.53;5021956;28;20152;-57
2023/10/15 04:32:45;;;;;;;0.90;0.90;;;;;;;11.06;89.51;96529.31;5004206;28;20449;-58
2023/10/15 04:35:25;;;;;;;0.80;0.80;;;;;;;11.29;90.62;96554.78;5004021;28;20077;-57
2023/10/15 04:37:53;;;;;;;0.80;0.80;;;;;;;11.16;90.96;96548.00;5005846;28;20391;-57
2023/10/15 04:40:23;;;;;;;0.90;0.90;;;;;;;11.25;91.52;96557.56;5021053;28;20041;-58
2023/10/15 04:42:51;;;;;;;0.85;0.85;;;;;;;11.15;91.30;96532.53;5025430;28;20060;-57
2023/10/15 04:45:35;;;;;;;0.80;0.80;;;;;;;11.37;91.07;96550.88;5024751;28;20442;-58
2023/10/15 04:48:12;;;;;;;0.90;0.90;;;;;;;11.42;90.69;96558.84;5025081;28;20061;-57
2023/10/15 04:50:40;;;;;;;0.90;0.90;;;;;;;11.41;90.73;96551.72;5009215;28;20177;-57
2023/10/15 04:55:51;;;;;;;0.90;0.90;;;;;;;11.49;91.72;96559.66;5005675;28;20045;-57
2023/10/15 04:58:19;;;;;;;1.00;1.00;;;;;;;11.53;92.39;96548.59;5011770;28;20126;-58
2023/10/15 05:00:50;;;;;;;1.00;1.00;;;;;;;10.98;91.75;96439.00;5024597;28;20053;-58
2023/10/15 05:03:17;;;;;;;0.90;0.90;;;;;;;9.38;91.44;96186.47;5024507;28;20046;-58
2023/10/15 05:05:44;;;;;;;0.90;0.90;;;;;;;11.93;90.35;96540.88;5024944;28;20083;-57
2023/10/15 05:08:12;;;;;;;0.90;0.90;;;;;;;11.99;90.07;96539.34;5022131;28;20442;-57
2023/10/15 05:10:50;;;;;;;1.10;1.10;;;;;;;11.78;89.17;96494.84;5024110;28;20633;-58
2023/10/15 05:13:19;;;;;;;0.98;0.98;;;;;;;12.06;84.79;96539.34;5023287;28;20365;-58
2023/10/15 05:15:49;;;;;;;0.90;0.90;;;;;;;11.81;82.08;96543.19;5024895;28;20053;-58
2023/10/15 05:18:18;;;;;;;0.90;0.90;;;;;;;11.30;83.53;96557.16;5011861;28;20050;-57
2023/10/15 05:20:50;;;;;;;0.88;0.88;;;;;;;10.62;85.86;96504.44;5002647;28;20104;-58
2023/10/15 05:23:19;;;;;;;0.90;0.90;;;;;;;11.33;84.79;96538.97;5004977;28;20054;-58
2023/10/15 05:25:49;;;;;;;0.85;0.85;;;;;;;11.36;84.54;96532.66;5007513;28;20290;-58
2023/10/15 05:28:16;;;;;;;0.90;0.90;;;;;;;11.66;83.93;96542.38;5021837;28;20052;-58
2023/10/15 05:30:43;;;;;;;0.90;0.90;;;;;;;11.94;82.84;96541.69;5003912;28;20061;-59
2023/10/15 05:33:10;;;;;;;0.90;0.90;;;;;;;12.20;82.34;96541.38;4995488;28;20061;-58
2023/10/15 05:35:40;;;;;;;0.90;0.90;;;;;;;12.43;84.05;96536.25;5013017;28;20089;-58
2023/10/15 05:38:08;;;;;;;0.95;0.95;;;;;;;12.37;85.34;96515.63;5021382;28;20045;-58
2023/10/15 05:40:37;;;;;;;1.10;1.10;;;;;;;12.75;85.40;96537.09;5024350;28;20443;-58
2023/10/15 05:43:07;;;;;;;1.00;1.00;;;;;;;12.93;84.24;96543.41;5024492;28;20573;-59
2023/10/15 05:45:33;;;;;;;1.15;1.15;;;;;;;13.25;81.96;96541.44;5024420;28;20049;-59
2023/10/15 05:48:00;;;;;;;1.10;1.10;;;;;;;12.58;81.88;96423.97;5010026;28;20042;-58
2023/10/15 05:50:29;;;;;;;1.13;1.13;;;;;;;13.46;81.73;96541.41;5003238;28;20504;-57
2023/10/15 05:52:56;;;;;;;1.10;1.10;;;;;;;13.65;81.64;96529.84;5003174;28;20554;-59
2023/10/15 05:55:23;;;;;;;1.10;1.10;;;;;;;13.90;80.29;96540.06;5005447;28;20521;-57
2023/10/15 05:57:50;;;;;;;1.20;1.20;;;;;;;14.12;79.30;96541.56;5015550;28;20059;-57
2023/10/15 06:00:19;;;;;;;1.20;1.20;;;;;;;13.98;78.04;96483.16;5004617;28;20053;-58
2023/10/15 06:02:48;;;;;;;1.10;1.10;;;;;;;14.47;77.59;96541.38;5018590;28;20542;-58
2023/10/15 06:05:15;;;;;;;1.20;1.20;;;;;;;14.61;76.97;96527.38;5024121;28;20061;-57
2023/10/15 06:07:45;;;;;;;1.20;1.20;;;;;;;14.92;75.38;96523.56;5024221;28;20477;-59
2023/10/15 06:10:12;;;;;;;1.35;1.35;;;;;;;15.10;75.26;96526.97;5023639;28;20057;-57
2023/10/15 06:12:39;;;;;;;1.45;1.45;;;;;;;15.25;75.32;96534.03;5018150;28;20046;-58
2023/10/15 06:15:07;;;;;;;1.33;1.33;;;;;;;15.38;75.12;96546.25;5020875;28;20072;-58
2023/10/15 06:17:34;;;;;;;1.30;1.30;;;;;;;15.61;74.06;96524.09;5023523;28;20053;-59
2023/10/15 06:20:12;;;;;;;1.50;1.50;;;;;;;15.81;73.18;96525.06;5012296;28;20739;-59
2023/10/15 06:22:45;;;;;;;1.50;1.50;;;;;;;15.89;72.90;96531.34;5003489;28;20050;-58
2023/10/15 06:25:16;;;;;;;1.50;1.50;;;;;;;15.83;71.89;96477.97;5002244;28;20057;-58
2023/10/15 06:27:43;;;;;;;1.73;1.73;;;;;;;16.16;71.20;96465.94;5020123;28;20056;-58
2023/10/15 06:30:17;;;;;;;1.55;1.55;;;;;;;16.98;70.09;96527.03;5022621;28;20500;-58
2023/10/15 06:32:50;;;;;;;1.60;1.60;;;;;;;16.98;67.98;96490.66;5004229;28;20972;-57
2023/10/15 06:35:19;;;;;;;1.70;1.70;;;;;;;17.32;67.64;96524.88;5008183;28;20084;-58
2023/10/15 06:37:50;;;;;;;1.80;1.80;;;;;;;17.24;67.35;96515.00;5020029;28;20427;-58
2023/10/15 06:40:17;;;;;;;1.92;1.92;;;;;;;17.18;67.02;96522.31;5026357;28;20134;-58
2023/10/15 06:42:51;;;;;;;1.70;1.70;;;;;;;17.31;66.74;96526.88;5027767;28;20164;-58
2023/10/15 06:45:19;;;;;;;1.60;1.60;;;;;;;17.47;65.96;96520.63;5027982;28;20050;-58
2023/10/15 06:47:49;;;;;;;1.73;1.73;;;;;;;17.53;66.16;96510.53;5015199;28;20053;-57
2023/10/15 06:50:16;;;;;;;1.75;1.75;;;;;;;17.11;66.38;96460.84;5007820;28;20081;-57
2023/10/15 06:52:43;;;;;;;1.90;1.90;;;;;;;17.08;66.70;96467.31;5007693;28;20133;-58
2023/10/15 06:55:19;;;;;;;1.70;1.70;;;;;;;17.55;66.71;96522.88;5007372;28;20061;-60
2023/10/15 06:57:47;;;;;;;1.58;1.58;;;;;;;17.54;67.48;96510.09;5007104;28;20089;-59
2023/10/15 07:00:21;;;;;;;1.88;1.88;;;;;;;17.36;67.76;96511.59;5006350;28;20100;-60
2023/10/15 07:02:53;;;;;;;1.70;1.70;;;;;;;17.27;68.98;96514.16;5007680;28;20064;-56
2023/10/15 07:05:23;;;;;;;1.73;1.73;;;;;;;17.42;68.74;96512.69;5006846;28;20050;-58
2023/10/15 07:07:50;;;;;;;1.70;1.70;;;;;;;17.33;69.46;96506.84;5007632;28;20443;-56
2023/10/15 07:10:17;;;;;;;1.60;1.60;;;;;;;17.06;69.63;96464.13;5006707;28;20069;-59
2023/10/15 07:12:50;;;;;;;1.63;1.63;;;;;;;17.16;69.76;96491.16;5007168;28;20495;-56
2023/10/15 07:15:18;;;;;;;1.75;1.75;;;;;;;17.40;70.01;96501.13;5014390;28;20057;-59
2023/10/15 07:17:45;;;;;;;1.75;1.75;;;;;;;16.70;68.72;96335.31;5025472;28;20593;-58
2023/10/15 07:20:17;;;;;;;1.80;1.80;;;;;;;17.72;68.72;96504.94;5026773;28;20543;-57
2023/10/15 07:22:51;;;;;;;1.77;1.77;;;;;;;17.90;67.66;96493.38;5026518;28;20527;-58
2023/10/15 07:25:21;;;;;;;1.90;1.90;;;;;;;17.90;67.12;96462.53;5022435;28;20045;-57
2023/10/15 07:27:49;;;;;;;2.03;2.03;;;;;;;18.36;65.78;96484.78;5022853;28;20053;-57
2023/10/15 07:30:19;;;;;;;2.08;2.08;;;;;;;18.55;63.96;96492.38;5026707;28;20089;-57
2023/10/15 07:32:47;;;;;;;2.10;2.10;;;;;;;18.49;62.99;96463.28;5026521;28;20053;-57
2023/10/15 07:35:15;;;;;;;2.17;2.17;;;;;;;19.12;61.32;96486.97;5021861;28;20409;-57
2023/10/15 07:37:48;;;;;;;2.20;2.20;;;;;;;18.77;59.87;96456.97;5025053;28;20056;-57
2023/10/15 07:40:19;;;;;;;2.25;2.25;;;;;;;19.64;59.72;96494.47;5023988;28;20111;-58
2023/10/15 07:42:50;;;;;;;2.25;2.25;;;;;;;19.88;59.07;96498.63;5025903;28;20569;-58
2023/10/15 07:45:19;;;;;;;2.10;2.10;;;;;;;20.19;57.20;96488.50;5024559;28;20526;-58
2023/10/15 07:47:46;;;;;;;2.13;2.13;;;;;;;20.19;56.10;96454.75;5026442;28;20049;-58
2023/10/15 07:50:18;;;;;;;2.25;2.25;;;;;;;20.62;54.46;96463.47;5026625;28;20144;-58
2023/10/15 07:52:48;;;;;;;2.42;2.35;;;;;;;20.90;54.67;96468.19;5025873;28;20499;-57
2023/10/15 07:55:14;;;;;;;2.25;2.25;;;;;;;20.98;54.80;96463.94;5024481;28;20534;-58
2023/10/15 07:57:42;;;;;;;2.63;2.53;;;;;;;20.59;55.23;96405.28;5026152;28;20640;-58
2023/10/15 08:00:22;;;;;;;2.10;2.10;;;;;;;20.99;53.94;96460.66;5026736;28;20264;-58
2023/10/15 08:02:57;;;;;;;2.60;2.50;;;;;;;20.80;54.06;96418.66;5024819;28;20107;-59
2023/10/15 08:05:27;;;;;;;2.30;2.30;;;;;;;21.28;54.08;96449.22;5024622;28;20061;-57
2023/10/15 08:07:54;;;;;;;2.53;2.42;;;;;;;21.54;52.92;96450.72;5026210;28;20076;-57
2023/10/15 08:10:23;;;;;;;2.65;2.55;;;;;;;21.41;52.04;96390.00;5024140;28;20061;-57
2023/10/15 08:12:51;;;;;;;2.58;2.47;;;;;;;21.94;51.48;96439.66;5025912;28;20496;-57
2023/10/15 08:15:18;;;;;;;2.60;2.50;;;;;;;21.97;51.23;96422.56;5026290;28;20053;-57
2023/10/15 08:17:46;;;;;;;2.63;2.53;;;;;;;22.32;50.56;96440.97;5025793;28;20563;-57
2023/10/15 08:20:13;;;;;;;2.30;2.30;;;;;;;22.55;50.33;96433.28;5025824;28;20060;-57
2023/10/15 08:22:40;;;;;;;2.67;2.58;;;;;;;22.34;50.67;96395.34;5025399;28;20504;-57
2023/10/15 08:25:13;;;;;;;2.78;2.67;;;;;;;22.78;49.97;96413.00;5025561;28;20053;-57
2023/10/15 08:27:46;;;;;;;2.80;2.70;;;;;;;22.48;49.17;96370.19;5012787;28;20432;-58
2023/10/15 08:30:14;;;;;;;2.75;2.65;;;;;;;22.98;48.89;96450.09;5006039;28;20057;-57
2023/10/15 08:32:44;;;;;;;2.60;2.50;;;;;;;23.20;48.35;96428.16;5005565;28;20060;-59
2023/10/15 08:35:13;;;;;;;3.08;2.97;;;;;;;23.37;48.24;96420.97;5005960;28;20137;-57
2023/10/15 08:37:42;;;;;;;2.80;2.70;;;;;;;23.40;47.45;96414.38;5004992;28;20541;-58
2023/10/15 08:40:15;;;;;;;2.60;2.50;;;;;;;23.28;46.85;96356.78;5005574;28;20108;-59
2023/10/15 08:42:49;;;;;;;2.97;2.88;;;;;;;23.67;46.98;96405.91;5005986;28;20128;-58
2023/10/15 08:45:21;;;;;;;3.22;3.13;;;;;;;23.84;46.19;96407.16;5004096;28;20508;-57
2023/10/15 08:47:51;;;;;;;3.30;3.20;;;;;;;23.89;45.97;96406.53;5004302;28;20049;-57
2023/10/15 08:50:20;;;;;;;2.90;2.80;;;;;;;23.99;46.08;96388.31;5005775;28;20053;-57
2023/10/15 08:52:53;;;;;;;3.17;3.08;;;;;;;24.22;45.61;96384.00;5003812;28;20050;-57
2023/10/15 08:55:24;;;;;;;2.95;2.85;;;;;;;23.92;45.95;96382.94;5005061;28;20053;-59
2023/10/15 08:57:54;;;;;;;3.15;3.05;;;;;;;24.19;45.28;96399.91;5003399;28;20072;-57
2023/10/15 09:00:25;;;;;;;3.33;3.22;;;;;;;24.33;45.09;96385.06;5005031;28;20135;-57
2023/10/15 09:03:02;;;;;;;2.90;2.80;;;;;;;24.48;44.66;96373.88;5003500;28;20054;-57
2023/10/15 09:05:30;;;;;;;3.08;2.97;;;;;;;24.63;44.37;96369.06;5004520;28;20045;-57
2023/10/15 09:08:05;;;;;;;3.15;3.05;;;;;;;24.80;44.02;96373.88;5004726;28;20060;-58
2023/10/15 09:10:40;;;;;;;3.42;3.33;;;;;;;24.78;43.79;96379.28;5004310;28;20062;-57
2023/10/15 09:13:14;;;;;;;3.00;2.90;;;;;;;24.88;43.87;96372.28;5003246;28;20065;-57
2023/10/15 09:15:45;;;;;;;3.20;3.10;;;;;;;25.18;43.59;96371.13;5004856;28;20049;-58
2023/10/15 09:18:15;;;;;;;3.30;3.20;;;;;;;25.44;42.84;96370.66;5004748;28;20049;-59
2023/10/15 09:20:46;;;;;;;3.35;3.25;;;;;;;25.60;42.72;96364.56;5004727;28;20061;-58
2023/10/15 09:23:13;;;;;;;3.60;3.50;;;;;;;25.82;42.17;96362.16;5004472;28;20054;-58
2023/10/15 09:25:41;;;;;;;3.40;3.30;;;;;;;25.82;41.47;96316.75;5002880;28;20046;-58
2023/10/15 09:28:08;;;;;;;3.50;3.40;;;;;;;26.03;40.25;96310.72;5020201;28;20061;-57
2023/10/15 09:30:35;;;;;;;3.70;3.60;;;;;;;26.46;40.12;96360.25;5022566;28;20602;-58
2023/10/15 09:33:02;;;;;;;3.60;3.50;;;;;;;26.56;39.94;96353.16;5024448;28;20100;-59
2023/10/15 09:35:31;;;;;;;3.78;3.67;;;;;;;26.69;39.73;96362.97;5023887;28;20060;-57
2023/10/15 09:37:58;;;;;;;3.97;3.88;;;;;;;26.86;39.50;96349.00;5024723;28;20057;-59
2023/10/15 09:40:30;;;;;;;3.80;3.70;;;;;;;26.98;38.42;96356.44;5024183;28;20504;-57
2023/10/15 09:42:59;;;;;;;4.03;3.92;;;;;;;27.05;39.01;96346.66;5024353;28;20061;-57
2023/10/15 09:45:30;;;;;;;4.38;4.28;;;;;;;27.05;38.27;96321.88;5023767;28;20057;-57
2023/10/15 09:47:57;;;;;;;3.95;3.85;;;;;;;27.27;38.41;96333.56;5024091;28;20421;-58
2023/10/15 09:50:31;;;;;;;4.15;4.05;;;;;;;27.31;38.07;96328.47;5023814;28;20431;-58
2023/10/15 09:53:01;;;;;;;4.20;4.10;;;;;;;27.33;38.28;96314.50;5023986;28;20057;-58
2023/10/15 09:55:31;;;;;;;4.00;3.90;;;;;;;26.65;38.54;96321.84;5024096;28;20045;-57
2023/10/15 09:58:01;;;;;;;4.05;3.95;;;;;;;26.55;38.78;96317.50;5022660;28;20607;-57
2023/10/15 10:00:46;;;;;;;3.55;3.45;;;;;;;26.85;38.38;96327.53;5023551;28;20524;-59
2023/10/15 10:03:37;;;;;;;3.65;3.55;;;;;;;26.99;38.38;96317.38;5022755;28;20065;-58
2023/10/15 10:06:14;;;;;;;3.75;3.65;;;;;;;27.20;37.97;96304.75;5022332;28;20049;-59
2023/10/15 10:09:10;;;;;;;3.80;3.70;;;;;;;27.34;37.99;96299.00;5022724;28;20151;-59
2023/10/15 10:11:54;;;;;;;3.97;3.88;;;;;;;27.50;37.52;96300.50;5022348;28;20065;-58
2023/10/15 10:14:23;;;;;;;4.03;3.92;;;;;;;26.80;37.31;96302.66;5024064;28;20089;-59
2023/10/15 10:16:52;;;;;;;3.70;3.60;;;;;;;26.89;36.82;96262.72;5023689;28;20108;-57
2023/10/15 10:19:20;;;;;;;3.90;3.80;;;;;;;27.22;36.55;96280.19;5022243;28;20511;-57
2023/10/15 10:21:47;;;;;;;3.97;3.88;;;;;;;27.42;37.06;96270.91;5022322;28;20065;-57
2023/10/15 10:24:17;;;;;;;3.72;3.63;;;;;;;26.94;37.88;96286.81;5023604;28;20414;-58
2023/10/15 10:26:55;;;;;;;3.92;3.83;;;;;;;27.27;37.49;96278.75;5023557;28;20045;-59
2023/10/15 10:29:26;;;;;;;3.85;3.75;;;;;;;27.04;36.93;96286.19;5022005;28;20055;-59
2023/10/15 10:31:58;;;;;;;3.78;3.67;;;;;;;27.27;37.12;96264.53;5021866;28;20049;-58
2023/10/15 10:34:29;;;;;;;4.10;4.00;;;;;;;27.09;37.01;96271.28;5021590;28;20041;-58
2023/10/15 10:36:56;;;;;;;3.53;3.42;;;;;;;27.23;36.95;96269.63;5023621;28;20049;-57
2023/10/15 10:39:25;;;;;;;3.45;3.35;;;;;;;27.20;36.96;96247.88;5021925;28;20302;-57
2023/10/15 10:41:59;;;;;;;3.33;3.22;;;;;;;27.36;36.92;96262.28;5022290;28;20549;-57
2023/10/15 10:44:26;;;;;;;4.03;3.92;;;;;;;27.82;36.52;96257.34;5023541;28;20061;-58
2023/10/15 10:46:56;;;;;;;4.30;4.20;;;;;;;27.24;36.65;96237.81;5023951;28;20303;-57
2023/10/15 10:49:29;;;;;;;4.10;4.00;;;;;;;27.68;36.86;96249.72;5023683;28;20127;-58
2023/10/15 10:52:15;;;;;;;4.20;4.10;;;;;;;27.79;36.34;96244.13;5021933;28;20528;-60
2023/10/15 10:54:43;;;;;;;4.35;4.25;;;;;;;28.00;36.08;96242.00;5023058;28;20053;-60
2023/10/15 10:57:10;;;;;;;3.83;3.72;;;;;;;28.04;35.77;96234.78;5021895;28;20073;-57
2023/10/15 10:59:40;;;;;;;4.05;3.95;;;;;;;28.02;35.84;96234.53;5023348;28;20103;-57
2023/10/15 11:02:13;;;;;;;4.28;4.18;;;;;;;28.04;35.74;96236.88;5023709;28;21190;-57
2023/10/15 11:04:42;;;;;;;4.50;4.40;;;;;;;27.75;35.81;96226.50;5021852;28;20412;-57
2023/10/15 11:07:10;;;;;;;4.22;4.13;;;;;;;28.24;35.27;96227.44;5023114;28;20054;-58
2023/10/15 11:09:38;;;;;;;4.22;4.13;;;;;;;28.61;35.14;96216.84;5022896;28;20141;-58
2023/10/15 11:12:16;;;;;;;4.20;4.10;;;;;;;28.84;34.62;96218.50;5022998;28;20053;-57
2023/10/15 11:14:44;;;;;;;4.45;4.35;;;;;;;28.90;35.00;96210.75;5021553;28;20061;-58
2023/10/15 11:17:10;;;;;;;4.53;4.43;;;;;;;28.76;34.46;96217.44;5017724;28;20431;-57
2023/10/15 11:19:37;;;;;;;3.95;3.85;;;;;;;28.67;34.73;96209.09;5004927;28;20508;-57
2023/10/15 11:22:05;;;;;;;4.68;4.57;;;;;;;28.28;35.43;96205.97;5022277;28;20524;-57
2023/10/15 11:24:32;;;;;;;4.50;4.40;;;;;;;27.99;35.53;96207.06;5007459;28;20089;-57
2023/10/15 11:26:59;;;;;;;4.00;3.90;;;;;;;27.59;36.04;96201.50;5009254;28;20049;-57
2023/10/15 11:29:27;;;;;;;4.05;3.95;;;;;;;27.65;35.62;96176.72;5024984;28;20225;-56
2023/10/15 11:31:58;;;;;;;4.28;4.18;;;;;;;27.32;36.03;96199.16;5026436;28;20145;-57
2023/10/15 11:34:27;;;;;;;3.92;3.83;;;;;;;27.49;36.40;96196.50;5024905;28;20054;-56
2023/10/15 11:36:56;;;;;;;3.97;3.88;;;;;;;27.69;36.36;96205.75;5019206;28;20050;-58
2023/10/15 11:39:29;;;;;;;4.18;4.07;;;;;;;28.03;36.03;96210.47;5007008;28;20060;-56
2023/10/15 11:41:56;;;;;;;4.47;4.37;;;;;;;27.88;36.23;96211.88;5006745;28;20060;-59
2023/10/15 11:44:26;;;;;;;4.20;4.10;;;;;;;27.01;36.95;96199.06;5006425;28;20305;-57
2023/10/15 11:46:54;;;;;;;3.92;3.83;;;;;;;26.61;37.76;96214.03;5006901;28;20085;-56
2023/10/15 11:49:24;;;;;;;3.70;3.60;;;;;;;26.53;37.98;96212.09;5006897;28;20045;-56
2023/10/15 11:51:58;;;;;;;4.03;3.92;;;;;;;26.80;37.76;96208.88;5006236;28;20132;-56
2023/10/15 11:54:28;;;;;;;3.78;3.67;;;;;;;26.92;37.22;96199.19;5020980;28;20049;-57
2023/10/15 11:56:59;;;;;;;3.60;3.50;;;;;;;27.00;37.00;96200.31;5006221;28;20176;-58
2023/10/15 11:59:27;;;;;;;3.55;3.45;;;;;;;26.79;37.16;96184.56;5006360;28;20060;-57
2023/10/15 12:01:53;;;;;;;3.70;3.60;;;;;;;26.84;37.38;96192.41;5006517;28;20148;-58
2023/10/15 12:04:23;;;;;;;3.70;3.60;;;;;;;27.31;37.09;96191.94;5004647;28;20054;-58
2023/10/15 12:06:52;;;;;;;3.60;3.50;;;;;;;27.52;36.82;96184.88;5006344;28;20089;-59
2023/10/15 12:09:24;;;;;;;3.95;3.85;;;;;;;27.51;36.38;96140.63;5005831;28;20149;-58
2023/10/15 12:11:52;;;;;;;3.78;3.67;;;;;;;28.08;36.00;96186.94;5006068;28;20511;-58
2023/10/15 12:14:19;;;;;;;4.00;3.90;;;;;;;27.46;37.23;96186.09;5005586;28;20050;-58
2023/10/15 12:16:46;;;;;;;3.95;3.85;;;;;;;27.50;37.13;96184.63;5005885;28;20054;-58
2023/10/15 12:19:13;;;;;;;3.75;3.65;;;;;;;27.94;36.51;96170.78;5020776;28;20570;-58
2023/10/15 12:21:40;;;;;;;4.07;3.97;;;;;;;27.61;36.81;96159.09;5005630;28;20068;-57